sensor_id;sensor_type;location;lat;lon;timestamp;P1;durP1;ratioP1;P2;durP2;ratioP2
78205;SDS011;67480;48.920;12.880;2023-11-21T00:01:44;3.97;;;2.95;;
78205;SDS011;67480;48.920;12.880;2023-11-21T00:04:09;4.18;;;3.05;;
78205;SDS011;67480;48.920;12.880;2023-11-21T00:06:34;4.38;;;3.00;;
78205;SDS011;67480;48.920;12.880;2023-11-21T00:09:00;6.28;;;3.35;;
78205;SDS011;67480;48.920;12.880;2023-11-21T00:11:25;5.95;;;3.22;;
78205;SDS011;67480;48.920;12.880;2023-11-21T00:13:50;4.00;;;3.13;;
78205;SDS011;67480;48.920;12.880;2023-11-21T00:16:16;4.43;;;3.80;;
78205;SDS011;67480;48.920;12.880;2023-11-21T00:18:41;5.75;;;4.10;;
78205;SDS011;67480;48.920;12.880;2023-11-21T00:21:07;4.75;;;3.70;;
78205;SDS011;67480;48.920;12.880;2023-11-21T00:23:34;25.63;;;17.85;;
78205;SDS011;67480;48.920;12.880;2023-11-21T00:25:59;8.98;;;5.00;;
78205;SDS011;67480;48.920;12.880;2023-11-21T00:28:25;5.90;;;4.40;;
78205;SDS011;67480;48.920;12.880;2023-11-21T00:30:51;5.80;;;3.80;;
78205;SDS011;67480;48.920;12.880;2023-11-21T00:33:16;4.88;;;4.10;;
78205;SDS011;67480;48.920;12.880;2023-11-21T00:35:41;8.48;;;4.70;;
78205;SDS011;67480;48.920;12.880;2023-11-21T00:38:07;6.22;;;4.43;;
78205;SDS011;67480;48.920;12.880;2023-11-21T00:40:33;7.63;;;4.70;;
78205;SDS011;67480;48.920;12.880;2023-11-21T00:42:59;8.60;;;5.25;;
78205;SDS011;67480;48.920;12.880;2023-11-21T00:45:24;8.07;;;5.47;;
78205;SDS011;67480;48.920;12.880;2023-11-21T00:47:49;7.35;;;5.22;;
78205;SDS011;67480;48.920;12.880;2023-11-21T00:50:15;5.95;;;4.75;;
78205;SDS011;67480;48.920;12.880;2023-11-21T00:52:40;9.45;;;6.45;;
78205;SDS011;67480;48.920;12.880;2023-11-21T00:55:06;8.60;;;6.00;;
78205;SDS011;67480;48.920;12.880;2023-11-21T00:57:32;10.10;;;7.43;;
78205;SDS011;67480;48.920;12.880;2023-11-21T00:59:58;10.68;;;8.07;;
78205;SDS011;67480;48.920;12.880;2023-11-21T01:02:23;11.73;;;8.52;;
78205;SDS011;67480;48.920;12.880;2023-11-21T01:04:50;16.73;;;8.63;;
78205;SDS011;67480;48.920;12.880;2023-11-21T01:07:15;10.38;;;8.35;;
78205;SDS011;67480;48.920;12.880;2023-11-21T01:09:40;10.73;;;7.72;;
78205;SDS011;67480;48.920;12.880;2023-11-21T01:12:06;13.50;;;8.75;;
78205;SDS011;67480;48.920;12.880;2023-11-21T01:14:31;11.18;;;8.15;;
78205;SDS011;67480;48.920;12.880;2023-11-21T01:16:57;11.40;;;8.43;;
78205;SDS011;67480;48.920;12.880;2023-11-21T01:19:22;10.55;;;7.35;;
78205;SDS011;67480;48.920;12.880;2023-11-21T01:21:47;10.63;;;7.78;;
78205;SDS011;67480;48.920;12.880;2023-11-21T01:24:13;13.40;;;9.40;;
78205;SDS011;67480;48.920;12.880;2023-11-21T01:26:38;10.55;;;8.02;;
78205;SDS011;67480;48.920;12.880;2023-11-21T01:29:03;11.07;;;8.25;;
78205;SDS011;67480;48.920;12.880;2023-11-21T01:31:29;10.05;;;8.32;;
78205;SDS011;67480;48.920;12.880;2023-11-21T01:33:55;10.48;;;8.50;;
78205;SDS011;67480;48.920;12.880;2023-11-21T01:36:21;9.45;;;7.82;;
78205;SDS011;67480;48.920;12.880;2023-11-21T01:38:46;8.95;;;8.05;;
78205;SDS011;67480;48.920;12.880;2023-11-21T01:41:13;9.18;;;7.03;;
78205;SDS011;67480;48.920;12.880;2023-11-21T01:43:38;10.30;;;8.07;;
78205;SDS011;67480;48.920;12.880;2023-11-21T01:46:04;12.27;;;7.90;;
78205;SDS011;67480;48.920;12.880;2023-11-21T01:48:31;10.30;;;7.20;;
78205;SDS011;67480;48.920;12.880;2023-11-21T01:50:56;11.05;;;7.93;;
78205;SDS011;67480;48.920;12.880;2023-11-21T01:53:23;10.38;;;8.57;;
78205;SDS011;67480;48.920;12.880;2023-11-21T01:55:53;11.65;;;8.88;;
78205;SDS011;67480;48.920;12.880;2023-11-21T01:58:20;11.60;;;9.15;;
78205;SDS011;67480;48.920;12.880;2023-11-21T02:00:46;11.48;;;9.30;;
78205;SDS011;67480;48.920;12.880;2023-11-21T02:03:14;13.68;;;9.60;;
78205;SDS011;67480;48.920;12.880;2023-11-21T02:05:39;11.60;;;8.85;;
78205;SDS011;67480;48.920;12.880;2023-11-21T02:08:05;12.57;;;9.57;;
78205;SDS011;67480;48.920;12.880;2023-11-21T02:10:32;15.18;;;10.10;;
78205;SDS011;67480;48.920;12.880;2023-11-21T02:12:57;10.52;;;9.05;;
78205;SDS011;67480;48.920;12.880;2023-11-21T02:15:23;10.63;;;9.15;;
78205;SDS011;67480;48.920;12.880;2023-11-21T02:17:52;11.43;;;8.93;;
78205;SDS011;67480;48.920;12.880;2023-11-21T02:20:18;12.43;;;8.77;;
78205;SDS011;67480;48.920;12.880;2023-11-21T02:22:55;10.88;;;9.35;;
78205;SDS011;67480;48.920;12.880;2023-11-21T02:25:28;11.18;;;8.95;;
78205;SDS011;67480;48.920;12.880;2023-11-21T02:27:57;12.90;;;9.32;;
78205;SDS011;67480;48.920;12.880;2023-11-21T02:30:25;12.57;;;8.85;;
78205;SDS011;67480;48.920;12.880;2023-11-21T02:32:50;12.00;;;9.00;;
78205;SDS011;67480;48.920;12.880;2023-11-21T02:35:19;13.75;;;9.15;;
78205;SDS011;67480;48.920;12.880;2023-11-21T02:37:46;9.88;;;8.45;;
78205;SDS011;67480;48.920;12.880;2023-11-21T02:40:12;10.98;;;9.35;;
78205;SDS011;67480;48.920;12.880;2023-11-21T02:42:38;11.48;;;8.95;;
78205;SDS011;67480;48.920;12.880;2023-11-21T02:45:05;12.43;;;9.35;;
78205;SDS011;67480;48.920;12.880;2023-11-21T02:47:31;12.27;;;9.50;;
78205;SDS011;67480;48.920;12.880;2023-11-21T02:49:57;9.98;;;8.68;;
78205;SDS011;67480;48.920;12.880;2023-11-21T02:52:22;9.93;;;8.57;;
78205;SDS011;67480;48.920;12.880;2023-11-21T02:54:47;11.82;;;8.90;;
78205;SDS011;67480;48.920;12.880;2023-11-21T02:57:13;11.57;;;9.02;;
78205;SDS011;67480;48.920;12.880;2023-11-21T02:59:38;10.82;;;9.30;;
78205;SDS011;67480;48.920;12.880;2023-11-21T03:02:03;11.18;;;9.18;;
78205;SDS011;67480;48.920;12.880;2023-11-21T03:04:29;10.40;;;9.05;;
78205;SDS011;67480;48.920;12.880;2023-11-21T03:06:54;14.98;;;9.45;;
78205;SDS011;67480;48.920;12.880;2023-11-21T03:09:19;11.85;;;9.27;;
78205;SDS011;67480;48.920;12.880;2023-11-21T03:11:45;14.00;;;10.10;;
78205;SDS011;67480;48.920;12.880;2023-11-21T03:14:10;16.48;;;10.50;;
78205;SDS011;67480;48.920;12.880;2023-11-21T03:16:35;12.82;;;9.35;;
78205;SDS011;67480;48.920;12.880;2023-11-21T03:19:03;13.25;;;9.30;;
78205;SDS011;67480;48.920;12.880;2023-11-21T03:21:30;13.52;;;9.40;;
78205;SDS011;67480;48.920;12.880;2023-11-21T03:23:55;11.88;;;9.82;;
78205;SDS011;67480;48.920;12.880;2023-11-21T03:26:20;11.82;;;10.23;;
78205;SDS011;67480;48.920;12.880;2023-11-21T03:28:46;15.10;;;10.82;;
78205;SDS011;67480;48.920;12.880;2023-11-21T03:31:11;12.93;;;9.55;;
78205;SDS011;67480;48.920;12.880;2023-11-21T03:33:37;16.02;;;11.23;;
78205;SDS011;67480;48.920;12.880;2023-11-21T03:36:02;13.07;;;10.15;;
78205;SDS011;67480;48.920;12.880;2023-11-21T03:38:28;15.98;;;11.13;;
78205;SDS011;67480;48.920;12.880;2023-11-21T03:40:54;13.18;;;10.65;;
78205;SDS011;67480;48.920;12.880;2023-11-21T03:43:19;12.20;;;10.15;;
78205;SDS011;67480;48.920;12.880;2023-11-21T03:45:44;14.10;;;9.82;;
78205;SDS011;67480;48.920;12.880;2023-11-21T03:48:11;16.15;;;10.98;;
78205;SDS011;67480;48.920;12.880;2023-11-21T03:50:37;11.68;;;10.27;;
78205;SDS011;67480;48.920;12.880;2023-11-21T03:53:03;18.50;;;10.88;;
78205;SDS011;67480;48.920;12.880;2023-11-21T03:55:29;15.20;;;10.50;;
78205;SDS011;67480;48.920;12.880;2023-11-21T03:57:56;13.15;;;9.73;;
78205;SDS011;67480;48.920;12.880;2023-11-21T04:00:22;13.85;;;10.55;;
78205;SDS011;67480;48.920;12.880;2023-11-21T04:02:47;14.05;;;9.88;;
78205;SDS011;67480;48.920;12.880;2023-11-21T04:05:12;14.00;;;10.45;;
78205;SDS011;67480;48.920;12.880;2023-11-21T04:07:38;13.63;;;10.02;;
78205;SDS011;67480;48.920;12.880;2023-11-21T04:10:04;13.95;;;10.57;;
78205;SDS011;67480;48.920;12.880;2023-11-21T04:12:33;12.38;;;10.35;;
78205;SDS011;67480;48.920;12.880;2023-11-21T04:14:58;11.82;;;10.20;;
78205;SDS011;67480;48.920;12.880;2023-11-21T04:17:23;12.15;;;10.55;;
78205;SDS011;67480;48.920;12.880;2023-11-21T04:19:49;11.38;;;10.15;;
78205;SDS011;67480;48.920;12.880;2023-11-21T04:22:14;14.90;;;10.95;;
78205;SDS011;67480;48.920;12.880;2023-11-21T04:24:39;14.15;;;10.55;;
78205;SDS011;67480;48.920;12.880;2023-11-21T04:27:04;12.40;;;10.32;;
78205;SDS011;67480;48.920;12.880;2023-11-21T04:29:30;12.95;;;11.00;;
78205;SDS011;67480;48.920;12.880;2023-11-21T04:31:55;14.75;;;11.10;;
78205;SDS011;67480;48.920;12.880;2023-11-21T04:34:20;13.25;;;10.75;;
78205;SDS011;67480;48.920;12.880;2023-11-21T04:36:46;13.70;;;10.35;;
78205;SDS011;67480;48.920;12.880;2023-11-21T04:39:11;14.27;;;11.15;;
78205;SDS011;67480;48.920;12.880;2023-11-21T04:41:37;14.18;;;10.57;;
78205;SDS011;67480;48.920;12.880;2023-11-21T04:44:04;14.43;;;10.52;;
78205;SDS011;67480;48.920;12.880;2023-11-21T04:46:32;13.23;;;10.90;;
78205;SDS011;67480;48.920;12.880;2023-11-21T04:48:58;13.30;;;9.82;;
78205;SDS011;67480;48.920;12.880;2023-11-21T04:51:23;14.30;;;10.55;;
78205;SDS011;67480;48.920;12.880;2023-11-21T04:53:49;12.35;;;10.60;;
78205;SDS011;67480;48.920;12.880;2023-11-21T04:56:14;17.25;;;12.10;;
78205;SDS011;67480;48.920;12.880;2023-11-21T04:58:41;12.52;;;10.20;;
78205;SDS011;67480;48.920;12.880;2023-11-21T05:01:07;15.98;;;10.63;;
78205;SDS011;67480;48.920;12.880;2023-11-21T05:03:32;15.40;;;9.95;;
78205;SDS011;67480;48.920;12.880;2023-11-21T05:05:59;13.45;;;10.77;;
78205;SDS011;67480;48.920;12.880;2023-11-21T05:08:24;14.52;;;10.63;;
78205;SDS011;67480;48.920;12.880;2023-11-21T05:10:50;13.07;;;11.68;;
78205;SDS011;67480;48.920;12.880;2023-11-21T05:13:17;13.85;;;11.25;;
78205;SDS011;67480;48.920;12.880;2023-11-21T05:15:43;14.63;;;11.05;;
78205;SDS011;67480;48.920;12.880;2023-11-21T05:18:09;15.25;;;11.27;;
78205;SDS011;67480;48.920;12.880;2023-11-21T05:20:35;16.70;;;11.18;;
78205;SDS011;67480;48.920;12.880;2023-11-21T05:23:00;15.45;;;11.52;;
78205;SDS011;67480;48.920;12.880;2023-11-21T05:25:25;15.10;;;11.23;;
78205;SDS011;67480;48.920;12.880;2023-11-21T05:27:51;13.45;;;11.18;;
78205;SDS011;67480;48.920;12.880;2023-11-21T05:30:16;15.55;;;11.23;;
